Восточная Россия

Макрорегион "Дальконтроль" предоставляет диспетчерское обслуживание виртуального воздушного движения сети "VATSIM" в РПИ Хабаровск (UHHH), Якутск (UEEE), Магадан (UHMM) на диспетчерском пункте RU-ERC_FSS с позывным "Дальконтроль" на всех высотах.

Лого Восточная Россия
Руководство

Sergey Balandin

Куратор
Контакты

FSS региона
Обозначение
RU-ERC_FSS
Позывной
Дальконтроль
Частота
135.550
Примечание
Top-down
Инструкторы региона
Ivan Aksenenko (Instructor)
Maxim Osmolovskiy (Instructor)
Nikolay Yamushev * (Controller)
Sergey Balandin (Senior Instructor)
Включает в себя

РПИ Магадан
РПИ Хабаровск
РПИ Якутск

Диспетчеры региона

Диспетчер Рейтинг Допуски *
Ashot Hakobyan Controller UEEE_CTR , UHHH_CTR , UHMM_CTR
Lihan Bao Controller UEEE_CTR , UHHH_CTR , UHMM_CTR
Alex Kalchenko Senior Student UHMM_CTR  *
Denis Makosov Controller UHHH_CTR
Igor Melnick Supervisor UHHH_CTR
Ivan Aksenenko Instructor UHHH_CTR
Konstantin Gordeev Controller UHMM_CTR
Maxim Korobko Senior Student UHHH_CTR  *, UEEE_APP, UHMM_APP, UHPP_APP
Maxim Osmolovskiy Instructor UEEE_CTR , UHHH_CTR , UHMM_CTR
Mikhail Gogolev Instructor UHMM_CTR
Nikolay Yamushev Controller UHHH_CTR
Sergey Balandin Senior Instructor UEEE_CTR , UHHH_CTR , UHMM_CTR
Vadim Kotelenec Senior Student UHHH_CTR  *, UHHH_APP(UHHH+UHHT)
Alexander Vasiliev Student UEEE_GND
Alexander Veretentsev Student 2 UHWW_TWR
Alexey Rodionov Student 2 UHHH_TWR(UHHH+UHHT)
Alexsey Zelenov Student UHHH_GND, UHWW_GND
Andrey Tyrtyshnikov Senior Student UHWW_APP
Artem Fedorov Student UHMM_GND!!!
Daniel Cherednichenko Student 2 UEEE_TWR, UHMM_TWR, UHPP_TWR
Egor Garifulin Student 2 UHSS_TWR, UHHH_TWR(UHHH+UHHT) , UHWW_TWR, UHMM_TWR, UHPP_TWR
Georgii Stepanov Student UHWW_GND
Ivan Pivovarov Student 2 UEEE_GND, UHHH_GND, UHWW_TWR, UHPP_GND
Matvei Udalov Student UHHH_GND
Maxim Sukhorukov Student 2 UHHH_TWR(UHHH+UHHT)
Nikita Brynkov Student 2 UEEE_TWR, UHWW_TWR, UHSS_R_APP*, UHMM_TWR
Nikita Razumov Student 2 UHSS_TWR, UHWW_TWR
Nikita Zikeev Senior Student UHSS_R_APP, UHWW_APP, UHPP_APP, UHMM_APP, UHMA_APP
Nikolai Sholom Student 2 UHHH_TWR(UHHH+UHHT) , UHSS_TWR, UHPP_GND
Roman Vorontsov Student UHHH_GND
Stepan Paliy Student UHHH_TWR(UHHH+UHHT)
Timur Sorov Student 2 UEEE_TWR!!!
Vadim Zhirnov Student UHWW_TWR*, UHHH_GND
Vladimir Biber Student UHPP_TWR!!!*, UHPP_GND

Аэропорты региона

ICAO Город Название Погода
UHMA Анадырь Угольный UHMA 221200Z 14002MPS CAVOK M10/M14 Q1018 R02/////// NOSIG RMK MID 14002MPS END R02/08001MPS QFE759/1013
UHBB Благовещенск Игнатьево UHBB 221200Z 14011MPS 9999 SCT033CB 14/03 Q1004 R18L/090062 NOSIG RMK QFE738/0984
UHWW Владивосток Владивосток UHWW 221200Z 22005MPS 9999 OVC013 05/03 Q1021 R25L/0///70 NOSIG RMK QFE764
UHKD Комсомольск-на-Амуре Дзёмги
UHKK Комсомольск-на-Амуре Хурба
UERL Ленск Ленск
UHMM Магадан Магадан UHMM 221200Z 00000MPS 9999 NSC M03/M06 Q1018 RMK QFE749 R28/08002MPS
UERR Мирный Мирный UERR 221200Z 35002MPS CAVOK 07/M03 Q1007 R25/210155 NOSIG RMK QFE724/0966
UELL Нерюнгри Чульман
UHNN Николаевск-на-Амуре Николаевск-на-Амуре
UHOO Охотск Охотск
UHMP Певек Певек
UHPP Петропавловск-Камчатский Елизово UHPP 221200Z 00000MPS CAVOK 00/M05 Q1010 R16R/CLRD60 NOSIG RMK QFE754/1006
UHMD Провидения Бухта Провидения
UHKG Советская Гавань Каменный Ручей
UHKM Советская Гавань Май-Гатка
UEST Тикси Тикси
UERP Удачный Полярный UERP 221100Z 29002MPS 9999 -SN BKN004 OVC100 M00/M01 Q1009 R35/550345 NOSIG RMK QBB140 QFE713
UHHH Хабаровск Хабаровск UHHH 221200Z 04005MPS CAVOK 06/00 Q1018 R88/090060 NOSIG RMK QFE757/1010
UESS Черский Черский
UHSS Южно-Сахалинск Хомутово UHSS 221200Z 36006MPS 9999 BKN040 01/M01 Q1023 R01/70D NOSIG RMK QFE766/1021
UEEE Якутск Якутск UEEE 221200Z 06003MPS CAVOK 05/M04 Q1011 R23/09//60 NOSIG RMK QFE749
UHNA Аян Аян
UEBB Батагай Батагай
UHNB Богородское Богородское
UHSB Буревестник Буревестник
UHHD Дальнереченск Дальнереченск
UHBE Зея Зея
UHSO Зональное Зональное
UHWK Кавалерово Кавалерово
UHEK Купол Купол
UHSI Курильск Итуруп
UHBI Магдагачи Магдагачи
UHSN Ноглики Ноглики
UHSH Оха Новостройка
UHWP Пластун Пластун
UHBS Свободный Свободный
UHBW Тында Тында
UEMU Усть-Мая Усть-Мая
UHHT Хабаровск Хабаровск МВЛ
UHHY Чумикан Чумикан
UHSK Шахтерск Шахтёрск
UHBP Экимчан Экимчан
UHSM Южно-Курильск Менделеево